CheckWX is a tool to help pilots better visualize weather data.  It is not intended as a substitute for an official pre-flight weather briefing.

23:50:49 UTC

KDCA METAR
Ronald Reagan Washington National Airport
Washington, Virginia, USA
Current

59 mins ago

KDCA 222252Z 31017G23KT 10SM FEW065 SCT120 BKN200 11/00 A2997 RMK AO2 SLP148 T01110000
Observed
Nov-22 @ 22:52 UTC
Wind
  • 310° at 17 KTS
  • Gusting to 23 KTS
Visibility
10 SM
Flight Rules
VFR
Cloud Levels
  • Few at 6,500' AGL
  • Scattered at 12,000' AGL
  • Broken at 20,000' AGL
Temperature
11°C / 52°F
Dewpoint
C / 32°F
Humidity
47%
Altimeter
29.97" Hg
Pressure
1014.92 hPa
Previous

2 hours ago

KDCA 222152Z 33012KT 10SM FEW040 SCT065 BKN120 BKN200 12/02 A2992 RMK AO2 SLP131 T01170022
Observed
Nov-22 @ 21:52 UTC
Wind
  • 330° at 12 KTS
Visibility
10 SM
Flight Rules
VFR
Cloud Levels
  • Few at 4,000' AGL
  • Scattered at 6,500' AGL
  • Broken at 12,000' AGL
  • Broken at 20,000' AGL
Temperature
12°C / 54°F
Dewpoint
C / 36°F
Humidity
51%
Altimeter
29.92" Hg
Pressure
1013.22 hPa
Previous

3 hours ago

KDCA 222052Z 29010G18KT 10SM FEW040 SCT065 BKN120 BKN200 13/03 A2989 RMK AO2 SLP120 T01280033 51024
Observed
Nov-22 @ 20:52 UTC
Wind
  • 290° at 10 KTS
  • Gusting to 18 KTS
Visibility
10 SM
Flight Rules
VFR
Cloud Levels
  • Few at 4,000' AGL
  • Scattered at 6,500' AGL
  • Broken at 12,000' AGL
  • Broken at 20,000' AGL
Temperature
13°C / 55°F
Dewpoint
C / 37°F
Humidity
51%
Altimeter
29.89" Hg
Pressure
1012.22 hPa